Time;durP1;ratioP1;P1;durP2;ratioP2;P2;SDS_P1;SDS_P2;PMS_P1;PMS_P2;Temp;Humidity;BMP_temperature;BMP_pressure;BME280_temperature;BME280_humidity;BME280_pressure;Samples;Min_cycle;Max_cycle;Signal;HPM_P1;HPM_P2
2023/10/11 00:00:40;;;;;;;4.65;2.50;;;;;;;13.49;70.51;100674.91;6054335;23;20018;-82
2023/10/11 00:05:55;;;;;;;5.22;2.60;;;;;;;13.31;71.36;100684.09;6078438;23;20029;-83
2023/10/11 00:08:38;;;;;;;4.45;2.10;;;;;;;13.39;70.96;100678.66;6073465;23;20077;-82
2023/10/11 00:11:07;;;;;;;6.35;2.60;;;;;;;13.41;70.84;100687.38;6081490;23;20024;-82
2023/10/11 00:13:35;;;;;;;5.38;2.35;;;;;;;13.38;71.00;100684.81;6077064;23;20045;-83
2023/10/11 00:16:07;;;;;;;6.18;2.45;;;;;;;13.44;70.26;100686.44;6082747;23;20064;-82
2023/10/11 00:18:36;;;;;;;5.07;2.58;;;;;;;13.21;71.46;100686.03;6075638;23;20452;-82
2023/10/11 00:21:15;;;;;;;6.50;2.70;;;;;;;13.08;72.03;100687.22;6081119;23;20013;-82
2023/10/11 00:23:50;;;;;;;4.93;2.78;;;;;;;13.01;72.28;100683.84;6034049;23;20030;-82
2023/10/11 00:26:18;;;;;;;4.70;2.20;;;;;;;12.84;73.10;100686.81;6049334;23;20093;-83
2023/10/11 00:28:45;;;;;;;4.75;2.40;;;;;;;12.94;72.56;100681.38;6060807;23;20030;-82
2023/10/11 00:31:19;;;;;;;5.57;2.55;;;;;;;13.00;72.46;100681.25;6056186;23;20018;-82
2023/10/11 00:33:53;;;;;;;7.72;2.38;;;;;;;13.04;71.63;100686.41;6058596;23;20022;-82
2023/10/11 00:36:26;;;;;;;6.78;2.63;;;;;;;12.95;72.04;100688.38;6057371;23;20073;-82
2023/10/11 00:38:52;;;;;;;7.20;3.13;;;;;;;12.98;72.10;100683.06;6080967;23;20029;-82
2023/10/11 00:41:19;;;;;;;6.85;2.47;;;;;;;12.94;72.62;100687.50;6073502;23;20041;-82
2023/10/11 00:43:51;;;;;;;6.30;2.92;;;;;;;12.87;72.31;100686.78;6080959;23;20022;-82
2023/10/11 00:46:28;;;;;;;6.30;2.38;;;;;;;12.69;73.02;100685.38;6073344;23;20025;-82
2023/10/11 00:48:59;;;;;;;5.00;2.33;;;;;;;12.69;73.12;100674.84;6058079;23;20028;-83
2023/10/11 00:51:31;;;;;;;5.00;2.47;;;;;;;12.44;73.83;100676.22;6049348;23;20346;-82
2023/10/11 00:54:04;;;;;;;7.10;2.53;;;;;;;12.63;73.11;100674.97;6080702;23;20018;-83
2023/10/11 00:56:32;;;;;;;6.78;2.40;;;;;;;12.75;72.50;100671.22;6047523;23;20018;-83
2023/10/11 00:59:00;;;;;;;5.95;2.65;;;;;;;12.73;72.99;100673.03;6082198;23;20027;-82
2023/10/11 01:01:27;;;;;;;6.05;2.70;;;;;;;12.50;73.96;100674.34;6073822;23;20029;-82
2023/10/11 01:03:55;;;;;;;7.45;2.92;;;;;;;12.53;73.62;100670.78;6057607;23;20019;-83
2023/10/11 01:06:25;;;;;;;5.65;2.35;;;;;;;12.48;73.33;100668.25;6076476;23;20023;-83
2023/10/11 01:08:53;;;;;;;5.00;2.40;;;;;;;12.67;72.58;100668.75;6085293;23;20018;-82
2023/10/11 01:11:21;;;;;;;9.18;2.80;;;;;;;12.49;73.28;100661.22;6050914;23;20018;-82
2023/10/11 01:13:51;;;;;;;6.78;2.85;;;;;;;12.42;74.12;100667.50;6082604;23;20019;-82
2023/10/11 01:16:28;;;;;;;8.50;3.25;;;;;;;12.44;73.31;100660.41;6073746;23;20018;-82
2023/10/11 01:18:55;;;;;;;7.50;2.90;;;;;;;12.39;73.93;100657.88;6082623;23;20022;-82
2023/10/11 01:21:22;;;;;;;3.47;2.40;;;;;;;12.16;74.77;100656.53;6075771;23;20027;-83
2023/10/11 01:23:49;;;;;;;6.07;2.65;;;;;;;12.28;74.29;100651.94;6080830;23;20038;-82
2023/10/11 01:26:17;;;;;;;4.55;2.20;;;;;;;12.23;73.68;100646.78;6073507;23;20086;-82
2023/10/11 01:28:51;;;;;;;9.02;3.35;;;;;;;12.03;74.37;100652.41;6082668;23;20030;-81
2023/10/11 01:31:18;;;;;;;5.95;2.53;;;;;;;12.24;73.35;100650.25;6072848;23;20347;-82
2023/10/11 01:33:48;;;;;;;5.80;2.88;;;;;;;12.12;74.90;100648.72;6082626;23;20018;-83
2023/10/11 01:36:22;;;;;;;8.45;3.00;;;;;;;12.05;75.33;100648.00;6074700;23;20046;-82
2023/10/11 01:38:49;;;;;;;6.03;2.75;;;;;;;12.07;75.34;100648.81;6081209;23;20026;-82
2023/10/11 01:41:27;;;;;;;6.00;2.70;;;;;;;12.01;75.20;100641.03;6074123;23;20125;-82
2023/10/11 01:43:55;;;;;;;7.38;2.80;;;;;;;12.21;74.44;100645.06;6083221;23;20019;-82
2023/10/11 01:46:27;;;;;;;4.80;2.67;;;;;;;12.13;74.31;100640.81;6073741;23;20034;-82
2023/10/11 01:48:55;;;;;;;4.30;2.50;;;;;;;12.22;73.75;100645.03;6081852;23;20065;-82
2023/10/11 01:51:28;;;;;;;9.23;2.35;;;;;;;12.17;74.19;100644.28;6074607;23;20018;-82
2023/10/11 01:54:06;;;;;;;3.90;2.20;;;;;;;12.10;74.52;100643.50;6056475;23;20050;-82
2023/10/11 01:56:33;;;;;;;7.43;2.90;;;;;;;12.12;74.71;100636.47;6074842;23;20030;-82
2023/10/11 01:59:01;;;;;;;4.47;2.28;;;;;;;11.95;75.45;100633.28;6077336;23;20042;-82
2023/10/11 02:01:38;;;;;;;5.60;2.80;;;;;;;11.99;75.14;100642.81;6072338;23;20050;-82
2023/10/11 02:04:17;;;;;;;6.97;3.08;;;;;;;11.93;75.38;100632.38;6080008;23;20022;-82
2023/10/11 02:06:47;;;;;;;5.03;2.50;;;;;;;11.93;75.74;100627.13;6077350;23;20437;-82
2023/10/11 02:09:20;;;;;;;5.50;2.50;;;;;;;11.78;76.01;100628.25;6073775;23;20068;-82
2023/10/11 02:11:52;;;;;;;5.57;2.10;;;;;;;11.99;74.99;100620.03;6080666;23;20328;-82
2023/10/11 02:14:25;;;;;;;5.70;2.83;;;;;;;11.79;75.74;100630.88;6046468;23;20019;-82
2023/10/11 02:16:54;;;;;;;5.63;2.50;;;;;;;11.90;74.76;100628.03;6070300;23;20062;-82
2023/10/11 02:19:24;;;;;;;7.45;2.60;;;;;;;11.83;76.50;100616.78;6073329;23;20022;-82
2023/10/11 02:21:53;;;;;;;5.28;2.28;;;;;;;11.82;76.03;100615.03;6080543;23;20027;-82
2023/10/11 02:24:25;;;;;;;6.25;2.75;;;;;;;11.95;76.00;100614.88;6072050;23;20481;-83
2023/10/11 02:26:54;;;;;;;4.35;2.17;;;;;;;11.96;76.83;100613.94;6080106;23;20023;-82
2023/10/11 02:29:23;;;;;;;4.82;2.05;;;;;;;11.93;77.16;100622.75;6073006;23;20019;-82
2023/10/11 02:31:52;;;;;;;5.40;2.40;;;;;;;12.03;75.94;100617.34;6082274;23;20101;-81
2023/10/11 02:34:19;;;;;;;5.28;2.13;;;;;;;11.93;76.92;100621.88;6072790;23;20022;-80
2023/10/11 02:36:57;;;;;;;6.97;2.75;;;;;;;11.98;76.77;100610.41;6081530;23;20121;-81
2023/10/11 02:39:42;;;;;;;5.60;2.53;;;;;;;12.05;76.94;100616.44;6073648;23;20030;-81
2023/10/11 02:42:09;;;;;;;6.68;3.00;;;;;;;12.00;76.43;100615.63;6077175;23;20025;-84
2023/10/11 02:44:39;;;;;;;4.63;2.13;;;;;;;11.98;76.13;100617.44;6079339;23;20030;-81
2023/10/11 02:47:08;;;;;;;5.65;2.45;;;;;;;11.95;76.59;100620.13;6055959;23;20081;-81
2023/10/11 02:49:35;;;;;;;4.65;2.20;;;;;;;11.96;75.36;100616.56;6050130;23;20018;-80
2023/10/11 02:52:08;;;;;;;4.72;2.40;;;;;;;11.98;75.04;100615.66;6065546;23;20046;-80
2023/10/11 02:54:38;;;;;;;;;;;;;;;11.95;75.62;100617.50;6075363;23;20022;-80
2023/10/11 02:57:18;;;;;;;5.53;2.10;;;;;;;12.08;74.78;100611.09;6079333;23;19917;-81
2023/10/11 02:59:50;;;;;;;5.03;2.30;;;;;;;11.94;76.35;100613.97;6079062;23;20022;-80
2023/10/11 03:02:17;;;;;;;3.70;1.98;;;;;;;11.91;75.79;100615.78;6073226;23;20097;-80
2023/10/11 03:04:44;;;;;;;9.02;2.80;;;;;;;11.84;76.53;100613.22;6055281;23;20024;-81
2023/10/11 03:07:12;;;;;;;6.43;2.72;;;;;;;11.84;77.24;100607.97;6046547;23;20022;-81
2023/10/11 03:09:42;;;;;;;3.70;2.40;;;;;;;11.91;76.69;100607.88;6059535;23;20058;-81
2023/10/11 03:12:20;;;;;;;4.88;2.20;;;;;;;11.91;75.93;100614.00;6056045;23;20050;-83
2023/10/11 03:14:54;;;;;;;6.32;2.30;;;;;;;11.97;75.05;100607.81;6080080;23;20040;-82
2023/10/11 03:17:24;;;;;;;6.57;2.60;;;;;;;11.89;75.60;100610.53;6074464;23;20113;-82
2023/10/11 03:19:52;;;;;;;7.25;2.70;;;;;;;11.76;75.93;100604.63;6081286;23;20022;-82
2023/10/11 03:22:20;;;;;;;6.10;2.55;;;;;;;11.78;74.93;100605.47;6074505;23;20018;-81
2023/10/11 03:25:12;;;;;;;4.53;2.22;;;;;;;11.74;75.95;100598.50;6058428;23;20030;-82
2023/10/11 03:27:48;;;;;;;5.43;2.40;;;;;;;11.73;76.19;100604.69;6077756;23;20097;-82
2023/10/11 03:30:21;;;;;;;5.32;2.22;;;;;;;11.73;75.95;100606.44;6073991;23;20034;-81
2023/10/11 03:32:49;;;;;;;5.35;2.20;;;;;;;11.60;76.86;100605.75;6084546;23;20503;-83
2023/10/11 03:35:19;;;;;;;6.75;2.50;;;;;;;11.73;75.19;100607.31;6077057;23;20026;-82
2023/10/11 03:38:17;;;;;;;4.85;2.15;;;;;;;11.55;76.20;100605.00;6082045;23;20022;-83
2023/10/11 03:40:54;;;;;;;6.47;2.80;;;;;;;11.46;76.39;100598.97;6076478;23;20022;-82
2023/10/11 03:43:23;;;;;;;6.88;2.53;;;;;;;11.48;77.18;100594.59;6074434;23;20069;-84
2023/10/11 03:45:51;;;;;;;4.97;2.28;;;;;;;11.49;77.26;100596.31;6083904;23;20053;-83
2023/10/11 03:48:21;;;;;;;3.80;2.00;;;;;;;11.48;75.81;100598.97;6075281;23;20164;-83
2023/10/11 03:50:51;;;;;;;5.72;2.22;;;;;;;11.45;76.96;100605.13;6049658;23;20025;-83
2023/10/11 03:53:18;;;;;;;3.70;2.08;;;;;;;11.47;76.45;100599.84;6072691;23;20029;-83
2023/10/11 03:55:46;;;;;;;3.63;2.15;;;;;;;11.51;76.08;100603.31;6084142;23;20122;-83
2023/10/11 03:58:57;;;;;;;4.43;2.15;;;;;;;11.57;74.92;100608.44;6050624;23;20025;-83
2023/10/11 04:04:00;;;;;;;4.90;2.20;;;;;;;11.42;75.97;100599.91;6059987;23;20026;-82
2023/10/11 04:06:27;;;;;;;9.10;2.53;;;;;;;11.37;76.33;100596.50;6074354;23;20027;-84
2023/10/11 04:09:02;;;;;;;6.05;2.53;;;;;;;11.34;75.38;100593.94;6052552;23;20019;-83
2023/10/11 04:11:50;;;;;;;5.70;2.60;;;;;;;11.26;77.60;100598.44;6062981;23;20030;-83
2023/10/11 04:14:24;;;;;;;5.35;2.17;;;;;;;11.17;77.92;100598.59;6077840;23;20109;-82
2023/10/11 04:16:56;;;;;;;4.82;2.40;;;;;;;11.20;76.69;100607.28;6083837;23;20018;-83
2023/10/11 04:19:23;;;;;;;7.70;2.77;;;;;;;11.13;77.21;100606.47;6076105;23;20023;-83
2023/10/11 04:21:54;;;;;;;4.47;2.10;;;;;;;11.26;76.80;100603.69;6084005;23;20028;-82
2023/10/11 04:24:22;;;;;;;6.28;2.45;;;;;;;11.20;76.67;100595.91;6072481;23;20050;-83
2023/10/11 04:27:45;;;;;;;4.50;2.33;;;;;;;11.16;76.24;100592.44;6086042;23;20022;-83
2023/10/11 04:29:38;;;;;;;5.28;2.63;;;;;;;11.02;76.93;100600.56;6078015;23;20018;-82
2023/10/11 04:32:14;;;;;;;4.80;2.15;;;;;;;11.24;75.14;100611.59;6043234;23;20025;-83
2023/10/11 04:34:55;;;;;;;3.58;2.30;;;;;;;11.16;75.10;100596.84;6075073;23;20023;-84
2023/10/11 04:37:30;;;;;;;4.05;1.80;;;;;;;10.96;76.01;100598.88;6075415;23;20022;-83
2023/10/11 04:43:01;;;;;;;3.67;2.03;;;;;;;10.77;77.45;100595.59;6081302;23;20058;-83
2023/10/11 04:45:45;;;;;;;4.47;2.17;;;;;;;10.88;77.12;100592.00;6041722;23;20018;-82
2023/10/11 04:48:32;;;;;;;4.63;2.38;;;;;;;10.90;77.11;100590.22;6072138;23;20113;-82
2023/10/11 04:51:04;;;;;;;4.88;2.22;;;;;;;10.92;76.99;100593.66;6074995;23;20046;-82
2023/10/11 04:53:45;;;;;;;5.90;2.20;;;;;;;10.86;76.26;100593.75;6046314;23;20028;-82
2023/10/11 04:59:16;;;;;;;6.10;2.35;;;;;;;10.76;76.74;100593.91;6077067;23;20082;-84
2023/10/11 05:04:26;;;;;;;7.00;2.28;;;;;;;10.76;77.03;100586.03;6067467;23;20077;-83
2023/10/11 05:06:54;;;;;;;8.77;2.75;;;;;;;10.69;76.85;100586.09;6078729;23;20026;-84
2023/10/11 05:09:38;;;;;;;6.30;2.22;;;;;;;10.70;76.28;100583.47;6076329;23;20022;-84
2023/10/11 05:14:40;;;;;;;11.07;2.70;;;;;;;10.44;78.31;100589.03;6076100;23;20101;-87
2023/10/11 05:19:56;;;;;;;5.43;2.20;;;;;;;10.42;77.22;100594.31;6024337;23;20015;-83
2023/10/11 05:22:30;;;;;;;10.90;2.63;;;;;;;10.46;77.30;100584.66;6022844;23;20025;-83
2023/10/11 05:52:16;;;;;;;4.88;2.63;;;;;;;10.19;78.60;100609.41;6075776;23;20025;-86
2023/10/11 05:54:45;;;;;;;6.53;3.03;;;;;;;10.23;78.50;100605.88;6056293;23;20026;-86
2023/10/11 05:57:13;;;;;;;7.05;2.42;;;;;;;10.14;79.41;100613.81;6071410;23;20030;-91
2023/10/11 05:59:47;;;;;;;6.18;2.55;;;;;;;10.39;77.03;100610.09;6082957;23;20344;-84
2023/10/11 06:02:14;;;;;;;6.18;2.40;;;;;;;10.42;76.62;100610.03;6048091;23;20030;-84
2023/10/11 06:04:41;;;;;;;7.80;2.95;;;;;;;10.41;77.83;100610.97;6082271;23;20101;-83
2023/10/11 06:07:15;;;;;;;9.00;2.92;;;;;;;10.37;77.75;100613.59;6079868;23;20030;-84
2023/10/11 06:09:43;;;;;;;8.93;2.80;;;;;;;10.29;78.74;100618.06;6076861;23;20026;-83
2023/10/11 06:12:22;;;;;;;7.13;2.58;;;;;;;10.33;77.94;100622.38;6073566;23;20364;-84
2023/10/11 06:14:53;;;;;;;4.93;2.47;;;;;;;10.50;76.75;100622.22;6078850;23;20030;-85
2023/10/11 06:17:21;;;;;;;8.57;2.92;;;;;;;10.50;77.84;100620.47;6073261;23;20029;-84
2023/10/11 06:20:10;;;;;;;9.30;2.38;;;;;;;10.51;77.09;100619.56;6080498;23;20456;-83
2023/10/11 06:22:37;;;;;;;5.55;2.58;;;;;;;10.52;76.77;100623.94;6073526;23;20022;-83
2023/10/11 06:25:07;;;;;;;5.97;2.50;;;;;;;10.55;77.05;100625.66;6080225;23;20022;-83
2023/10/11 06:30:19;;;;;;;5.95;2.70;;;;;;;10.60;76.06;100622.09;6051552;23;20033;-83
2023/10/11 06:32:49;;;;;;;9.55;2.40;;;;;;;10.64;75.95;100622.06;6054817;23;20018;-84
2023/10/11 06:35:23;;;;;;;5.25;2.22;;;;;;;10.42;78.57;100625.78;6047949;23;20022;-83
2023/10/11 06:37:54;;;;;;;6.78;2.28;;;;;;;10.64;76.90;100620.28;6056447;23;20022;-83
2023/10/11 06:40:38;;;;;;;6.53;2.50;;;;;;;10.74;76.39;100621.03;6047087;23;20026;-83
2023/10/11 06:43:07;;;;;;;3.97;2.55;;;;;;;10.74;78.51;100627.16;6081198;23;20022;-83
2023/10/11 06:45:34;;;;;;;7.50;2.63;;;;;;;10.77;78.07;100629.72;6073073;23;20022;-84
2023/10/11 06:48:06;;;;;;;7.88;2.85;;;;;;;10.84;77.82;100627.06;6080066;23;20117;-83
2023/10/11 06:50:37;;;;;;;;;;;;;;;11.09;78.70;100631.09;6074804;23;20402;-83
2023/10/11 06:53:08;;;;;;;6.80;2.55;;;;;;;11.23;79.47;100643.16;6081284;23;19925;-83
2023/10/11 06:55:39;;;;;;;6.63;2.90;;;;;;;11.42;79.07;100646.38;6073869;23;20018;-83
2023/10/11 06:58:15;;;;;;;5.03;2.78;;;;;;;11.47;77.95;100650.66;6079883;23;20049;-83
2023/10/11 07:00:46;;;;;;;7.55;2.58;;;;;;;11.44;77.96;100652.44;6077565;23;20062;-84
2023/10/11 07:05:56;;;;;;;7.43;2.72;;;;;;;11.30;78.06;100657.94;6082504;23;20034;-83
2023/10/11 07:09:19;;;;;;;7.53;2.90;;;;;;;11.36;78.00;100663.09;6072045;23;20527;-84
2023/10/11 07:11:36;;;;;;;7.63;2.80;;;;;;;11.41;77.75;100658.66;6056565;23;20029;-84
2023/10/11 07:14:14;;;;;;;4.75;2.45;;;;;;;11.55;77.39;100654.94;6080388;23;20019;-86
2023/10/11 07:16:47;;;;;;;9.18;3.22;;;;;;;11.45;77.74;100652.44;6019695;23;20022;-83
2023/10/11 07:19:15;;;;;;;7.30;2.65;;;;;;;11.65;77.56;100649.47;6078409;23;20038;-84
2023/10/11 07:21:52;;;;;;;7.72;2.97;;;;;;;11.84;77.96;100644.78;6085372;23;20015;-83
2023/10/11 07:24:32;;;;;;;6.60;2.75;;;;;;;12.13;77.45;100651.34;6060202;23;20019;-83
2023/10/11 07:27:09;;;;;;;9.68;2.75;;;;;;;12.29;77.07;100651.06;6084858;23;20022;-84
2023/10/11 07:29:42;;;;;;;7.20;2.53;;;;;;;12.29;77.42;100656.31;6079240;23;20046;-84
2023/10/11 07:32:15;;;;;;;4.53;1.90;;;;;;;12.66;75.87;100647.72;6077229;23;20053;-84
2023/10/11 07:34:42;;;;;;;8.75;2.85;;;;;;;12.93;75.00;100648.03;6081702;23;20049;-84
2023/10/11 07:37:11;;;;;;;7.10;2.63;;;;;;;13.07;74.17;100653.88;6083082;23;20014;-83
2023/10/11 07:39:41;;;;;;;5.30;2.47;;;;;;;13.09;74.34;100648.56;6072930;23;20029;-83
2023/10/11 07:42:08;;;;;;;6.35;2.15;;;;;;;13.80;71.08;100636.38;6055992;23;20354;-84
2023/10/11 07:44:37;;;;;;;6.28;2.45;;;;;;;14.01;70.60;100648.16;6049546;23;20026;-86
2023/10/11 07:47:08;;;;;;;4.40;2.40;;;;;;;14.20;70.16;100659.94;6081419;23;20025;-85
2023/10/11 07:49:38;;;;;;;5.97;2.08;;;;;;;14.03;70.93;100657.78;6074738;23;20028;-83
2023/10/11 07:52:10;;;;;;;5.85;2.35;;;;;;;14.57;68.37;100645.75;6054537;23;20456;-81
2023/10/11 07:54:39;;;;;;;8.73;2.40;;;;;;;14.47;69.25;100660.13;6075539;23;20078;-80
2023/10/11 07:57:14;;;;;;;5.90;2.08;;;;;;;14.68;68.74;100652.53;6055617;23;20038;-81
2023/10/11 07:59:42;;;;;;;5.72;2.05;;;;;;;14.90;67.36;100661.56;6076300;23;20018;-80
2023/10/11 08:04:59;;;;;;;6.22;2.08;;;;;;;14.97;67.51;100658.75;6079709;23;20022;-81
2023/10/11 08:07:29;;;;;;;4.78;2.47;;;;;;;15.06;67.12;100653.16;6072979;23;20127;-80
2023/10/11 08:10:28;;;;;;;8.52;2.30;;;;;;;15.05;67.42;100652.31;6079983;23;20101;-80
2023/10/11 08:12:47;;;;;;;4.93;2.10;;;;;;;15.30;66.91;100662.13;6077058;23;20029;-81
2023/10/11 08:15:15;;;;;;;6.47;2.08;;;;;;;15.53;65.13;100653.47;6073476;23;20026;-80
2023/10/11 08:17:42;;;;;;;6.07;2.22;;;;;;;16.01;63.95;100651.91;6055112;23;20097;-80
2023/10/11 08:20:15;;;;;;;5.85;2.45;;;;;;;16.21;63.18;100643.28;6080035;23;20444;-81
2023/10/11 08:22:46;;;;;;;9.02;2.33;;;;;;;16.61;61.68;100644.50;6044026;23;20087;-80
2023/10/11 08:25:14;;;;;;;9.23;2.53;;;;;;;16.63;61.09;100641.78;6068485;23;20018;-81
2023/10/11 08:27:41;;;;;;;5.45;1.95;;;;;;;16.84;60.41;100640.13;6080546;23;20026;-79
2023/10/11 08:32:45;;;;;;;;;;;;;;;16.93;59.93;100650.41;6076082;23;20022;-80
2023/10/11 08:35:17;;;;;;;5.32;2.25;;;;;;;17.09;59.63;100645.38;6073878;23;19921;-80
2023/10/11 08:37:45;;;;;;;7.05;2.38;;;;;;;17.11;60.09;100642.66;6081210;23;20018;-80
2023/10/11 08:40:29;;;;;;;8.43;2.20;;;;;;;17.41;60.38;100639.69;6075376;23;20317;-80
2023/10/11 08:43:00;;;;;;;7.53;2.10;;;;;;;17.65;58.82;100638.69;6058671;23;20018;-80
2023/10/11 08:45:33;;;;;;;4.22;2.22;;;;;;;17.54;59.35;100643.59;6049736;23;20022;-80
2023/10/11 08:48:01;;;;;;;7.15;2.13;;;;;;;17.53;59.18;100637.41;6056686;23;20024;-80
2023/10/11 08:50:34;;;;;;;6.15;1.92;;;;;;;17.67;59.06;100642.16;6048432;23;20102;-80
2023/10/11 08:53:08;;;;;;;5.05;2.00;;;;;;;17.90;57.08;100645.66;6081471;23;20022;-80
2023/10/11 08:55:39;;;;;;;7.22;2.10;;;;;;;18.03;57.71;100646.91;6035370;23;20018;-80
2023/10/11 08:58:12;;;;;;;5.32;2.00;;;;;;;18.10;57.23;100649.28;6081688;23;20046;-82
2023/10/11 09:00:47;;;;;;;5.72;1.98;;;;;;;18.28;56.62;100650.25;6051436;23;20041;-81
2023/10/11 09:03:17;;;;;;;11.20;2.50;;;;;;;18.33;57.52;100657.09;6052466;23;20018;-81
2023/10/11 09:05:47;;;;;;;5.43;1.92;;;;;;;18.24;56.82;100662.81;6083445;23;20019;-81
2023/10/11 09:08:31;;;;;;;5.10;1.95;;;;;;;18.23;57.84;100659.31;6076827;23;20026;-81
2023/10/11 09:11:28;;;;;;;6.05;1.92;;;;;;;18.55;56.00;100661.47;6083817;23;20022;-81
2023/10/11 09:14:14;;;;;;;4.85;2.08;;;;;;;18.86;55.06;100654.78;6082942;23;20033;-81
2023/10/11 09:16:41;;;;;;;4.57;1.98;;;;;;;18.99;55.19;100655.06;6073927;23;20452;-81
2023/10/11 09:19:11;;;;;;;9.25;2.17;;;;;;;19.17;54.77;100653.34;6082159;23;20025;-80
2023/10/11 09:21:38;;;;;;;5.32;2.55;;;;;;;19.43;54.18;100642.31;6075714;23;20029;-82
2023/10/11 09:24:25;;;;;;;8.07;2.08;;;;;;;19.33;55.29;100643.69;6056657;23;20528;-81
2023/10/11 09:27:18;;;;;;;4.05;2.00;;;;;;;19.60;53.83;100643.28;6078798;23;20090;-82
2023/10/11 09:29:55;;;;;;;4.88;2.00;;;;;;;20.03;53.55;100638.50;6052150;23;20018;-82
2023/10/11 09:32:31;;;;;;;3.83;1.77;;;;;;;19.85;53.98;100634.94;6051321;23;20065;-83
2023/10/11 09:34:58;;;;;;;6.05;1.73;;;;;;;20.22;53.31;100638.41;6083622;23;20053;-83
2023/10/11 09:37:25;;;;;;;8.48;1.90;;;;;;;20.46;51.88;100636.22;6075966;23;20026;-83
2023/10/11 09:40:01;;;;;;;4.13;2.08;;;;;;;20.48;52.13;100631.69;6058913;23;20029;-83
2023/10/11 09:42:29;;;;;;;7.25;2.33;;;;;;;20.45;52.42;100634.50;6052543;23;20528;-83
2023/10/11 09:44:57;;;;;;;3.45;1.75;;;;;;;20.42;53.02;100634.69;6034591;23;20160;-83
2023/10/11 09:47:31;;;;;;;7.03;2.00;;;;;;;20.68;51.89;100629.75;6075224;23;20078;-83
2023/10/11 09:50:00;;;;;;;5.38;2.35;;;;;;;20.69;51.84;100630.66;6058814;23;20135;-83
2023/10/11 09:52:29;;;;;;;5.00;1.83;;;;;;;21.19;51.02;100635.00;6027135;23;20022;-82
2023/10/11 09:54:57;;;;;;;5.22;2.15;;;;;;;21.16;51.35;100632.47;6082616;23;20022;-82
2023/10/11 09:57:41;;;;;;;5.03;1.90;;;;;;;21.25;51.00;100625.78;6049174;23;20018;-82
2023/10/11 10:00:26;;;;;;;7.38;2.97;;;;;;;21.43;50.59;100623.84;6057331;23;20026;-83
2023/10/11 10:02:54;;;;;;;3.47;1.80;;;;;;;21.49;50.38;100628.81;6055522;23;20050;-84
2023/10/11 10:05:22;;;;;;;6.20;1.92;;;;;;;21.58;50.29;100624.78;6051416;23;20031;-86
2023/10/11 10:07:53;;;;;;;8.25;2.08;;;;;;;21.87;49.02;100620.44;6082319;23;20018;-83
2023/10/11 10:10:25;;;;;;;8.23;2.10;;;;;;;22.13;48.41;100616.19;6074668;23;20023;-82
2023/10/11 10:12:58;;;;;;;3.53;2.00;;;;;;;22.20;49.31;100616.66;6059638;23;20531;-84
2023/10/11 10:15:32;;;;;;;5.28;1.70;;;;;;;22.36;48.13;100621.94;6077591;23;20022;-83
2023/10/11 10:18:05;;;;;;;4.50;2.00;;;;;;;22.63;47.81;100623.88;6058237;23;20061;-84
2023/10/11 10:20:42;;;;;;;7.05;2.40;;;;;;;22.75;48.32;100620.41;6043812;23;20102;-82
2023/10/11 10:23:15;;;;;;;7.18;1.90;;;;;;;22.81;46.78;100621.84;6064165;23;20022;-82
2023/10/11 10:25:51;;;;;;;4.38;2.05;;;;;;;22.60;47.35;100613.38;6076927;23;20022;-83
2023/10/11 10:28:39;;;;;;;7.05;2.25;;;;;;;22.82;46.47;100618.22;6074239;23;20026;-83
2023/10/11 10:31:11;;;;;;;4.20;1.67;;;;;;;22.90;46.78;100621.28;6081123;23;20097;-84
2023/10/11 10:33:42;;;;;;;5.25;1.90;;;;;;;23.06;47.09;100616.63;6076458;23;20078;-82
2023/10/11 10:36:21;;;;;;;8.85;2.13;;;;;;;23.36;45.76;100617.44;6066438;23;20025;-82
2023/10/11 10:39:01;;;;;;;11.15;2.50;;;;;;;23.54;45.94;100610.88;6079415;23;20028;-83
2023/10/11 10:41:31;;;;;;;7.70;2.10;;;;;;;23.82;45.87;100605.47;6051790;23;20027;-83
2023/10/11 10:44:02;;;;;;;4.22;1.85;;;;;;;24.07;45.30;100604.66;6057452;23;20025;-83
2023/10/11 10:46:36;;;;;;;6.88;1.90;;;;;;;24.30;45.48;100595.88;6024309;23;20021;-85
2023/10/11 10:49:03;;;;;;;8.77;1.95;;;;;;;24.64;44.55;100601.56;6082634;23;20023;-84
2023/10/11 10:51:35;;;;;;;8.95;1.90;;;;;;;24.53;42.25;100590.69;6077609;23;20049;-83
2023/10/11 10:54:37;;;;;;;8.55;2.00;;;;;;;24.75;41.60;100589.19;6082208;23;20109;-83
2023/10/11 10:56:58;;;;;;;4.45;1.67;;;;;;;24.67;41.33;100588.91;6073591;23;20027;-83
2023/10/11 10:59:26;;;;;;;6.20;2.10;;;;;;;24.92;41.70;100580.75;6077923;23;20034;-83
2023/10/11 11:01:53;;;;;;;5.07;2.00;;;;;;;24.91;41.23;100576.38;6084160;23;20090;-83
2023/10/11 11:04:27;;;;;;;9.45;1.90;;;;;;;25.14;41.32;100573.81;6075176;23;20109;-82
2023/10/11 11:06:55;;;;;;;7.50;2.25;;;;;;;25.17;40.17;100570.88;6083408;23;20030;-84
2023/10/11 11:09:29;;;;;;;6.03;1.85;;;;;;;25.20;40.63;100569.81;6075692;23;20101;-84
2023/10/11 11:12:14;;;;;;;5.05;1.48;;;;;;;25.18;40.98;100561.88;6058847;23;20025;-82
2023/10/11 11:15:00;;;;;;;5.65;1.52;;;;;;;25.23;40.58;100553.47;6080426;23;20042;-84
2023/10/11 11:17:47;;;;;;;6.85;2.38;;;;;;;25.38;40.82;100548.81;6052252;23;20064;-84
2023/10/11 11:20:15;;;;;;;6.57;1.48;;;;;;;25.36;40.57;100556.13;6073759;23;20014;-83
2023/10/11 11:22:45;;;;;;;5.00;1.65;;;;;;;25.41;40.68;100553.97;6082504;23;20377;-82
2023/10/11 11:28:05;;;;;;;9.07;1.40;;;;;;;25.42;41.03;100540.41;6081171;23;20029;-83
2023/10/11 11:30:36;;;;;;;7.22;2.00;;;;;;;25.61;40.07;100547.91;6074914;23;20070;-82
2023/10/11 11:33:13;;;;;;;7.82;1.88;;;;;;;25.73;39.83;100545.25;6083238;23;20022;-82
2023/10/11 11:35:43;;;;;;;6.45;1.58;;;;;;;25.50;40.06;100542.50;6077766;23;20026;-86
2023/10/11 11:38:20;;;;;;;7.03;1.70;;;;;;;25.50;40.53;100534.44;6076586;23;20019;-86
2023/10/11 11:40:51;;;;;;;6.53;1.70;;;;;;;25.82;39.80;100539.16;6082125;23;20022;-84
2023/10/11 11:43:20;;;;;;;7.35;1.83;;;;;;;25.64;40.28;100534.25;6075743;23;20022;-82
2023/10/11 11:45:49;;;;;;;5.25;1.58;;;;;;;25.66;40.06;100532.31;6055899;23;20104;-83
2023/10/11 11:48:23;;;;;;;4.97;1.83;;;;;;;25.64;39.79;100526.19;6075285;23;20015;-82
2023/10/11 11:50:50;;;;;;;4.78;1.77;;;;;;;25.44;39.96;100516.13;6082614;23;20018;-82
2023/10/11 11:53:18;;;;;;;6.40;1.83;;;;;;;25.90;39.54;100517.94;6049409;23;20109;-83
2023/10/11 11:55:46;;;;;;;9.73;1.88;;;;;;;25.80;38.54;100508.88;6080876;23;20018;-83
2023/10/11 11:58:16;;;;;;;7.05;1.75;;;;;;;25.96;38.74;100512.06;6072938;23;20026;-83
2023/10/11 12:00:59;;;;;;;5.75;1.60;;;;;;;26.02;38.79;100506.22;6082762;23;20049;-85
2023/10/11 12:03:26;;;;;;;7.45;1.55;;;;;;;26.62;37.99;100511.34;6074434;23;20026;-84
2023/10/11 12:05:53;;;;;;;5.45;1.92;;;;;;;26.16;37.95;100504.28;6081339;23;20022;-84
2023/10/11 12:08:20;;;;;;;5.65;1.92;;;;;;;26.21;37.93;100507.44;6077074;23;20494;-83
2023/10/11 12:10:49;;;;;;;6.45;1.98;;;;;;;26.06;37.26;100489.88;6059790;23;20364;-82
2023/10/11 12:13:23;;;;;;;5.45;1.60;;;;;;;26.23;37.23;100500.13;6078189;23;20030;-82
2023/10/11 12:15:57;;;;;;;6.30;2.85;;;;;;;26.34;37.11;100491.19;6060399;23;20019;-83
2023/10/11 12:18:32;;;;;;;5.60;1.50;;;;;;;26.05;37.00;100494.38;6074082;23;20027;-83
2023/10/11 12:21:10;;;;;;;7.97;2.10;;;;;;;25.83;37.45;100484.44;6079540;23;20021;-82
2023/10/11 12:23:46;;;;;;;7.50;1.75;;;;;;;26.05;36.36;100491.69;6077872;23;20015;-86
2023/10/11 12:26:16;;;;;;;5.32;1.38;;;;;;;26.52;36.06;100491.53;6077074;23;20045;-85
2023/10/11 12:28:47;;;;;;;3.97;1.50;;;;;;;26.31;35.52;100494.13;6059967;23;20026;-82
2023/10/11 12:31:18;;;;;;;6.90;1.80;;;;;;;26.68;35.35;100492.03;6074623;23;20018;-83
2023/10/11 12:33:45;;;;;;;7.72;1.85;;;;;;;26.75;35.15;100495.06;6057705;23;20037;-83
2023/10/11 12:36:12;;;;;;;6.10;1.60;;;;;;;26.89;34.70;100486.69;6077829;23;20077;-83
2023/10/11 12:38:39;;;;;;;4.82;1.35;;;;;;;26.61;34.07;100482.72;6084015;23;20325;-83
2023/10/11 12:41:07;;;;;;;6.45;2.20;;;;;;;26.63;33.94;100479.88;6059313;23;20029;-83
2023/10/11 12:43:37;;;;;;;6.18;2.20;;;;;;;26.83;34.04;100486.34;6078621;23;20025;-83
2023/10/11 12:46:04;;;;;;;5.88;1.73;;;;;;;26.72;33.76;100487.22;6084154;23;20033;-82
2023/10/11 12:48:33;;;;;;;5.53;1.88;;;;;;;26.72;34.18;100482.72;6049283;23;20103;-84
2023/10/11 12:51:00;;;;;;;3.67;1.65;;;;;;;26.64;33.78;100484.28;6083818;23;20014;-84